Latest Weather Observations for Milingimbi

IDD60801

Issued at 11:01 am CST Saturday 30 July 2016 (issued every 30 minutes, with the page automatically refreshed every 10 minutes)

About weather observations | Map of weather stations | Latest weather observations for NT | Other Formats
Station Details ID: 014404 Name: MILINGIMBI AIRPORT Lat: -12.09 Lon: 134.89 Height: 15.0 m
Data from the previous 72 hours. | See also: Recent months at Milingimbi
Date/Time
CST
Temp
°C
App
Temp
°C
Dew
Point
°C
Rel
Hum
%
Delta-T
°C
Wind Press
QNH
hPa
Press
MSL
hPa
Rain since
9am
mm
Dir  Spd
km/h
Gust
km/h
Spd
kts
Gust
kts
30/11:00am 30.2 26.0 11.2 31 11.0 SE 24 33 13 18 1013.3 - 0.0
30/10:30am 29.2 25.1 11.3 33 10.3 SE 24 35 13 19 1013.7 - 0.0
30/10:00am 27.4 22.5 11.4 37 9.1 SE 28 37 15 20 1013.9 - 0.0
30/09:30am 26.2 22.2 11.9 41 8.2 SE 24 43 13 23 1014.3 - 0.0
30/09:00am 25.5 21.9 11.7 42 7.9 SSE 22 32 12 17 1014.2 1014.1 0.0
30/08:30am 23.7 21.4 14.1 55 5.6 SSE 19 24 10 13 1014.0 - 0.0
30/08:00am 22.0 21.2 16.1 69 3.6 SSE 15 24 8 13 1014.1 - 0.0
30/07:30am 20.9 20.8 16.9 78 2.4 SSE 13 17 7 9 1013.6 - 0.0
30/07:00am 20.4 20.8 17.2 82 2.0 SSE 11 17 6 9 1013.2 - 0.0
30/06:30am 20.4 21.0 17.6 84 1.7 SSE 11 15 6 8 1012.9 - 0.0
30/06:00am 20.5 20.7 17.7 84 1.7 SSE 13 15 7 8 1012.7 1012.6 0.0
30/05:30am 20.6 21.2 17.8 84 1.7 SE 11 15 6 8 1012.6 - 0.0
30/05:00am 20.9 21.6 17.9 83 1.9 SSE 11 19 6 10 1012.5 - 0.0
30/04:30am 20.7 21.7 17.7 83 1.8 SSE 9 13 5 7 1012.5 - 0.0
30/04:00am 21.0 21.9 17.6 81 2.1 S 9 13 5 7 1012.4 - 0.0
30/03:30am 21.2 21.5 17.8 81 2.1 SSE 13 17 7 9 1012.4 - 0.0
30/03:00am 21.4 21.7 17.8 80 2.2 SSE 13 17 7 9 1012.7 1012.6 0.0
30/02:30am 21.6 21.9 17.8 79 2.4 SSE 13 20 7 11 1012.9 - 0.0
30/02:00am 21.7 21.9 17.7 78 2.5 SE 13 19 7 10 1013.2 - 0.0
30/01:30am 22.1 21.6 17.7 76 2.7 SSE 17 22 9 12 1013.3 - 0.0
30/01:00am 22.4 22.3 17.8 75 2.9 SE 15 20 8 11 1013.7 - 0.0
30/12:30am 22.6 22.0 17.5 73 3.2 SSE 17 24 9 13 1013.7 - 0.0
30/12:00am 22.9 23.0 17.4 71 3.4 SSE 13 19 7 10 1013.9 1013.8 0.0
 
Date/Time
CST
Temp
°C
App
Temp
°C
Dew
Point
°C
Rel
Hum
%
Delta-T
°C
Wind Press
QNH
hPa
Press
MSL
hPa
Rain since
9am
mm
Dir  Spd
km/h
Gust
km/h
Spd
kts
Gust
kts
29/11:30pm 23.1 23.1 17.1 69 3.7 SE 13 17 7 9 1014.1 - 0.0
29/11:00pm 23.5 23.2 17.3 68 3.8 SSE 15 19 8 10 1014.2 - 0.0
29/10:30pm 24.0 23.3 17.3 66 4.2 SE 17 26 9 14 1014.3 - 0.0
29/10:00pm 24.3 23.7 17.5 66 4.2 SE 17 22 9 12 1014.1 - 0.0
29/09:30pm 24.7 23.8 16.9 62 4.8 SE 17 20 9 11 1014.1 - 0.0
29/09:00pm 25.1 23.8 16.8 60 5.1 SE 19 26 10 14 1013.6 1013.5 0.0
29/08:30pm 25.5 23.9 16.6 58 5.5 SE 20 28 11 15 1013.2 - 0.0
29/08:00pm 26.1 24.2 16.6 55 5.9 SE 22 30 12 16 1012.6 - 0.0
29/07:30pm 26.5 25.2 16.7 55 6.1 SE 19 28 10 15 1012.1 - 0.0
29/07:00pm 27.2 25.7 16.8 53 6.5 SE 20 28 11 15 1011.6 - 0.0
29/06:30pm 27.7 26.5 17.5 53 6.4 SE 20 30 11 16 1011.2 - 0.0
29/06:00pm 28.1 26.7 17.9 54 6.5 ESE 22 30 12 16 1011.0 1010.9 0.0
29/05:30pm 29.3 27.6 17.2 48 7.6 ESE 22 30 12 16 1010.8 - 0.0
29/05:00pm 29.8 28.4 16.9 45 8.1 ESE 20 28 11 15 1010.6 - 0.0
29/04:30pm 30.3 29.8 17.7 46 8.0 E 17 24 9 13 1010.4 - 0.0
29/04:00pm 31.2 29.7 16.4 41 9.3 ESE 19 28 10 15 1010.4 - 0.0
29/03:30pm 31.2 30.5 16.4 41 9.3 E 15 22 8 12 1010.6 - 0.0
29/03:00pm 31.0 29.7 15.8 40 9.5 ESE 17 26 9 14 1010.6 1010.5 0.0
29/02:30pm 31.2 29.3 15.2 38 9.9 E 19 32 10 17 1011.0 - 0.0
29/02:00pm 30.5 28.6 15.8 41 9.1 E 20 30 11 16 1011.4 - 0.0
29/01:30pm 30.6 27.9 14.7 38 9.7 E 22 32 12 17 1011.9 - 0.0
29/01:00pm 30.9 28.9 14.9 37 9.8 ESE 19 30 10 16 1012.2 - 0.0
29/12:30pm 30.3 27.7 14.8 39 9.5 ESE 22 33 12 18 1012.5 - 0.0
29/12:00pm 30.5 26.7 13.7 35 10.1 ESE 26 35 14 19 1012.9 1012.8 0.0
29/11:30am 29.4 25.1 13.2 37 9.6 ESE 28 39 15 21 1013.5 - 0.0
29/11:00am 29.7 25.6 12.6 35 10.1 SE 26 39 14 21 1013.9 - 0.0
29/10:30am 28.9 24.6 11.9 35 9.9 SE 26 37 14 20 1014.0 - 0.0
29/10:00am 28.1 23.8 12.0 36 9.3 SSE 26 35 14 19 1014.0 - 0.0
29/09:30am 27.3 23.4 12.1 39 8.8 SSE 24 37 13 20 1014.3 - 0.0
29/09:00am 26.0 23.4 13.2 45 7.5 SSE 19 28 10 15 1014.2 1014.1 0.0
29/08:30am 24.8 22.4 13.7 50 6.5 SSE 19 30 10 16 1014.0 - 0.0
29/08:00am 23.5 21.5 13.9 55 5.6 SSE 17 28 9 15 1013.9 - 0.0
29/07:30am 22.4 21.0 14.5 61 4.6 SSE 15 20 8 11 1013.6 - 0.0
29/07:00am 21.6 20.8 15.2 67 3.8 SSE 13 17 7 9 1013.2 - 0.0
29/06:30am 21.3 20.8 15.8 71 3.3 SSE 13 19 7 10 1013.1 - 0.0
29/06:00am 21.4 20.7 16.4 73 3.0 SSE 15 19 8 10 1013.0 1012.9 0.0
29/05:30am 21.5 21.2 16.5 73 3.0 SSE 13 17 7 9 1012.8 - 0.0
29/05:00am 21.4 21.2 16.6 74 2.9 SSE 13 17 7 9 1012.9 - 0.0
29/04:30am 21.4 21.9 16.6 74 2.9 SSE 9 13 5 7 1013.0 - 0.0
29/04:00am 21.6 21.4 16.8 74 2.9 S 13 19 7 10 1013.0 - 0.0
29/03:30am 21.8 21.6 16.7 73 3.1 S 13 17 7 9 1013.2 - 0.0
29/03:00am 21.8 21.6 16.7 73 3.1 SSE 13 17 7 9 1013.3 1013.2 0.0
29/02:30am 21.8 22.0 16.7 73 3.1 S 11 15 6 8 1013.5 - 0.0
29/02:00am 22.0 21.8 16.7 72 3.2 S 13 24 7 13 1013.6 - 0.0
29/01:30am 22.4 21.8 16.7 70 3.5 S 15 20 8 11 1014.0 - 0.0
29/01:00am 22.9 22.0 16.9 69 3.7 SSE 17 24 9 13 1014.4 - 0.0
29/12:30am 23.3 22.8 16.8 67 4.0 SSE 15 26 8 14 1014.8 - 0.0
29/12:00am 23.7 22.4 16.7 65 4.3 SSE 19 26 10 14 1014.8 1014.7 0.0
 
Date/Time
CST
Temp
°C
App
Temp
°C
Dew
Point
°C
Rel
Hum
%
Delta-T
°C
Wind Press
QNH
hPa
Press
MSL
hPa
Rain since
9am
mm
Dir  Spd
km/h
Gust
km/h
Spd
kts
Gust
kts
28/11:30pm 24.1 23.2 16.9 64 4.4 SSE 17 26 9 14 1014.9 - 0.0
28/11:00pm 24.3 23.1 17.1 64 4.5 SSE 19 26 10 14 1014.9 - 0.0
28/10:30pm 24.5 23.2 16.7 61 4.8 SSE 19 26 10 14 1014.9 - 0.0
28/10:00pm 24.5 24.0 17.0 63 4.6 SSE 15 17 8 9 1015.0 - 0.0
28/09:30pm 24.5 23.9 16.7 61 4.8 SSE 15 20 8 11 1014.8 - 0.0
28/09:00pm 24.6 23.6 16.6 61 4.9 SSE 17 22 9 12 1014.6 1014.5 0.0
28/08:30pm 25.0 23.5 16.7 60 5.1 SSE 20 33 11 18 1014.6 - 0.0
28/08:00pm 25.3 23.7 16.4 57 5.5 SSE 20 28 11 15 1014.0 - 0.0
28/07:30pm 25.9 23.6 16.7 57 5.7 SE 24 33 13 18 1013.6 - 0.0
28/07:00pm 26.7 24.5 16.9 55 6.1 SE 24 32 13 17 1012.9 - 0.0
28/06:30pm 27.4 25.7 17.3 54 6.3 SE 22 33 12 18 1012.5 - 0.0
28/06:00pm 28.2 26.7 17.7 53 6.6 SE 22 30 12 16 1012.1 1012.0 0.0
28/05:30pm 28.6 27.0 17.5 51 7.0 ESE 22 32 12 17 1011.5 - 0.0
28/05:00pm 29.3 28.7 17.5 49 7.5 ESE 17 26 9 14 1011.3 - 0.0
28/04:30pm 29.3 28.1 17.5 49 7.5 ESE 20 28 11 15 1010.9 - 0.0
28/04:00pm 29.8 28.5 17.3 47 7.9 ESE 20 30 11 16 1010.8 - 0.0
28/03:30pm 29.9 29.4 17.7 48 7.8 E 17 28 9 15 1011.0 - 0.0
28/03:00pm 31.1 30.1 16.7 42 9.1 ESE 17 26 9 14 1011.1 1011.0 0.0
28/02:30pm 30.8 28.8 16.4 42 9.0 ESE 22 35 12 19 1011.3 - 0.0
28/02:00pm 30.5 27.5 15.8 41 9.1 ESE 26 35 14 19 1011.7 - 0.0
28/01:30pm 30.8 27.9 15.2 38 9.6 ESE 24 39 13 21 1012.2 - 0.0
28/01:00pm 30.8 27.0 14.8 37 9.8 ESE 28 41 15 22 1012.7 - 0.0
28/12:30pm 30.0 25.9 14.9 39 9.2 ESE 30 43 16 23 1013.2 - 0.0
28/12:00pm 29.1 25.2 14.5 41 8.8 ESE 28 41 15 22 1013.9 1013.8 0.0
28/11:30am 29.4 25.4 15.1 41 8.7 ESE 30 41 16 22 1014.3 - 0.0
28/11:00am 28.3 24.3 13.0 39 9.0 SSE 26 39 14 21 1014.5 - 0.0
28/10:30am 28.1 24.3 13.6 41 8.6 SE 26 39 14 21 1014.8 - 0.0
28/10:00am 27.0 23.5 14.4 46 7.5 SE 26 35 14 19 1015.2 - 0.0
28/09:30am 24.8 20.2 13.4 49 6.7 SE 30 41 16 22 1015.3 - 0.0
28/09:00am 24.4 21.0 13.6 51 6.3 SSE 24 39 13 21 1015.5 1015.4 0.0
28/08:30am 23.1 20.0 13.3 54 5.7 SSE 22 35 12 19 1015.3 - 0.0
28/08:00am 21.1 19.3 13.3 61 4.5 S 15 20 8 11 1015.0 - 0.0
28/07:30am 19.2 18.4 12.9 67 3.6 S 9 13 5 7 1014.9 - 0.0
28/07:00am 17.7 17.2 12.8 73 2.7 S 7 9 4 5 1014.4 - 0.0
28/06:30am 17.6 16.7 12.7 73 2.7 S 9 11 5 6 1014.2 - 0.0
28/06:00am 17.9 17.4 12.8 72 2.8 S 7 11 4 6 1014.1 1014.0 0.0
28/05:30am 18.3 17.5 13.0 71 3.0 S 9 13 5 7 1013.9 - 0.0
28/05:00am 18.4 17.6 13.0 71 3.0 S 9 13 5 7 1013.8 - 0.0
28/04:30am 19.2 18.4 12.9 67 3.6 S 9 13 5 7 1013.7 - 0.0
28/04:00am 20.1 18.6 13.1 64 4.0 SSE 13 20 7 11 1013.8 - 0.0
28/03:30am 20.2 18.8 13.4 65 3.9 SSE 13 17 7 9 1013.9 - 0.0
28/03:00am 20.2 18.8 13.4 65 3.9 SSE 13 17 7 9 1013.9 1013.8 0.0
28/02:30am 20.6 19.3 13.8 65 3.9 SSE 13 22 7 12 1014.1 - 0.0
28/02:00am 21.1 19.1 14.0 64 4.1 SE 17 22 9 12 1014.5 - 0.0
28/01:30am 21.5 19.3 14.4 64 4.2 SE 19 28 10 15 1014.7 - 0.0
28/01:00am 21.3 19.8 15.4 69 3.5 SE 17 20 9 11 1015.0 - 0.0
28/12:30am 21.1 20.7 16.3 74 2.9 SSE 13 19 7 10 1015.0 - 0.0
28/12:00am 21.6 21.4 16.6 73 3.0 SSE 13 17 7 9 1015.1 1015.0 0.0
 
Date/Time
CST
Temp
°C
App
Temp
°C
Dew
Point
°C
Rel
Hum
%
Delta-T
°C
Wind Press
QNH
hPa
Press
MSL
hPa
Rain since
9am
mm
Dir  Spd
km/h
Gust
km/h
Spd
kts
Gust
kts
27/11:30pm 22.1 21.9 16.6 71 3.3 SSE 13 17 7 9 1015.2 - 0.0
27/11:00pm 22.7 21.7 16.7 69 3.7 SE 17 22 9 12 1015.4 - 0.0
27/10:30pm 23.2 21.8 16.5 66 4.1 SE 19 28 10 15 1015.5 - 0.0
27/10:00pm 23.7 22.3 16.5 64 4.4 SE 19 26 10 14 1015.4 - 0.0
27/09:30pm 23.8 22.8 15.6 60 4.9 SE 15 17 8 9 1015.3 - 0.0
27/09:00pm 24.5 23.3 16.2 60 5.1 SSE 17 20 9 11 1015.1 1015.0 0.0
27/08:30pm 25.2 23.5 15.8 56 5.7 SE 19 28 10 15 1014.8 - 0.0
27/08:00pm 25.6 23.9 16.2 56 5.8 SE 20 28 11 15 1014.3 - 0.0
27/07:30pm 26.1 24.3 16.9 57 5.7 ESE 22 32 12 17 1013.9 - 0.0
27/07:00pm 26.7 24.5 16.9 55 6.1 ESE 24 32 13 17 1013.4 - 0.0
27/06:30pm 27.1 25.2 16.7 53 6.5 ESE 22 32 12 17 1013.0 - 0.0
27/06:00pm 28.0 26.2 16.9 51 6.9 ESE 22 35 12 19 1012.7 1012.6 0.0
27/05:30pm 28.7 27.0 16.3 47 7.7 ESE 20 30 11 16 1012.5 - 0.0
27/05:00pm 29.7 28.5 17.5 48 7.7 ESE 20 32 11 17 1012.2 - 0.0
27/04:30pm 29.9 27.4 17.0 45 8.1 ESE 26 39 14 21 1011.9 - 0.0
27/04:00pm 30.9 28.8 17.2 43 8.7 ESE 24 37 13 20 1011.7 - 0.0
27/03:30pm 30.5 28.1 15.4 40 9.3 ESE 22 33 12 18 1011.6 - 0.0
27/03:00pm 30.6 28.1 16.2 41 9.0 ESE 24 39 13 21 1011.8 1011.7 0.0
27/02:30pm 30.8 28.7 17.1 43 8.7 ESE 24 33 13 18 1012.0 - 0.0
27/02:00pm 30.6 27.7 17.0 44 8.6 ESE 28 43 15 23 1012.5 - 0.0
27/01:30pm 30.5 28.3 16.9 44 8.6 ESE 24 35 13 19 1012.8 - 0.0
27/01:00pm 30.2 27.0 17.3 46 8.2 ESE 30 44 16 24 1013.4 - 0.0
27/12:30pm 30.1 27.8 17.5 46 8.0 ESE 26 39 14 21 1013.8 - 0.0
27/12:00pm 29.6 26.2 16.8 46 8.0 ESE 30 43 16 23 1014.1 1014.0 0.0
27/11:30am 29.1 26.2 17.0 48 7.6 ESE 28 39 15 21 1014.5 - 0.0

Other Formats:

Comma delimited format used in spreadsheet applications
http://www.bom.gov.au/fwo/IDD60801/IDD60801.94140.axf

JavaScript Object Notation format (JSON) in row-major order
http://www.bom.gov.au/fwo/IDD60801/IDD60801.94140.json